Time;durP1;ratioP1;P1;durP2;ratioP2;P2;SDS_P1;SDS_P2;PMS_P1;PMS_P2;Temp;Humidity;BMP_temperature;BMP_pressure;BME280_temperature;BME280_humidity;BME280_pressure;Samples;Min_cycle;Max_cycle;Signal;HPM_P1;HPM_P2
2023/10/03 00:02:07;;;;;;;33.53;25.00;;;18.60;99.90;;;;;;5078385;28;20044;-90
2023/10/03 00:04:34;;;;;;;32.90;24.92;;;18.60;99.90;;;;;;5095306;28;20055;-89
2023/10/03 00:07:00;;;;;;;36.28;25.20;;;18.60;99.90;;;;;;5078257;28;20042;-90
2023/10/03 00:09:25;;;;;;;28.10;16.73;;;18.60;99.90;;;;;;5094861;28;20434;-90
2023/10/03 00:11:51;;;;;;;34.60;25.02;;;18.50;99.90;;;;;;5094634;28;20035;-90
2023/10/03 00:14:18;;;;;;;36.00;26.02;;;18.50;99.90;;;;;;5095107;28;20036;-89
2023/10/03 00:16:44;;;;;;;34.95;26.50;;;18.50;99.90;;;;;;5094721;28;20043;-89
2023/10/03 00:19:10;;;;;;;37.00;25.67;;;18.50;99.90;;;;;;5077926;28;20088;-89
2023/10/03 00:21:36;;;;;;;31.10;18.45;;;18.50;99.90;;;;;;5077730;28;20031;-89
2023/10/03 00:24:02;;;;;;;35.15;25.90;;;18.50;99.90;;;;;;5077042;28;20044;-89
2023/10/03 00:26:32;;;;;;;35.75;24.98;;;18.40;99.90;;;;;;5077775;28;20104;-89
2023/10/03 00:28:58;;;;;;;34.25;25.40;;;18.40;99.90;;;;;;5077781;28;20118;-89
2023/10/03 00:31:24;;;;;;;34.30;25.00;;;18.40;99.90;;;;;;5077885;28;20131;-89
2023/10/03 00:33:49;;;;;;;37.35;24.40;;;18.40;99.90;;;;;;5094667;28;20409;-88
2023/10/03 00:36:23;;;;;;;36.17;25.40;;;18.40;99.90;;;;;;5094430;28;20475;-89
2023/10/03 00:38:50;;;;;;;31.55;23.35;;;18.40;99.90;;;;;;5077259;28;20042;-88
2023/10/03 00:41:19;;;;;;;30.90;17.08;;;18.40;99.90;;;;;;5077707;28;20043;-89
2023/10/03 00:44:11;;;;;;;33.97;23.67;;;18.30;99.90;;;;;;5077413;28;20556;-89
2023/10/03 00:46:37;;;;;;;32.08;24.02;;;18.30;99.90;;;;;;5090210;28;20055;-89
2023/10/03 00:49:08;;;;;;;32.90;23.85;;;18.30;99.90;;;;;;5077058;28;20032;-89
2023/10/03 00:51:35;;;;;;;33.70;24.63;;;18.30;99.90;;;;;;5079426;28;20083;-89
2023/10/03 00:54:02;;;;;;;31.65;23.92;;;18.40;99.90;;;;;;5077532;28;20288;-89
2023/10/03 00:56:28;;;;;;;33.45;23.40;;;18.30;99.90;;;;;;5077603;28;20043;-89
2023/10/03 00:58:54;;;;;;;34.15;23.63;;;18.30;99.90;;;;;;5077203;28;20047;-89
2023/10/03 01:01:21;;;;;;;35.22;24.33;;;18.30;99.90;;;;;;5099366;28;20047;-89
2023/10/03 01:03:47;;;;;;;33.35;23.90;;;18.30;99.90;;;;;;5076832;28;20046;-89
2023/10/03 01:06:15;;;;;;;34.40;22.70;;;18.30;99.90;;;;;;5094381;28;20031;-89
2023/10/03 01:08:46;;;;;;;30.38;18.08;;;18.30;99.90;;;;;;5093906;28;20164;-89
2023/10/03 01:11:20;;;;;;;34.85;25.02;;;18.20;99.90;;;;;;5076911;28;20032;-89
2023/10/03 01:13:48;;;;;;;31.50;23.48;;;18.20;99.90;;;;;;5077123;28;20060;-89
2023/10/03 01:16:27;;;;;;;29.58;17.70;;;18.20;99.90;;;;;;5094166;28;20104;-89
2023/10/03 01:18:54;;;;;;;34.42;23.15;;;18.20;99.90;;;;;;5093735;28;20071;-89
2023/10/03 01:21:21;;;;;;;32.35;22.15;;;18.10;99.90;;;;;;5094048;28;20039;-89
2023/10/03 01:23:47;;;;;;;31.80;23.38;;;18.20;99.90;;;;;;5093804;28;20054;-89
2023/10/03 01:26:14;;;;;;;31.80;23.58;;;18.20;99.90;;;;;;5094201;28;20050;-90
2023/10/03 01:28:40;;;;;;;31.48;14.73;;;18.20;99.90;;;;;;5093548;28;20071;-90
2023/10/03 01:31:06;;;;;;;35.53;25.00;;;18.10;99.90;;;;;;5094163;28;20074;-89
2023/10/03 01:33:32;;;;;;;34.55;23.58;;;18.20;99.90;;;;;;5093994;28;20047;-89
2023/10/03 01:36:02;;;;;;;31.20;16.42;;;18.20;99.90;;;;;;5076822;28;20081;-89
2023/10/03 01:38:28;;;;;;;33.50;23.75;;;18.20;99.90;;;;;;5093651;28;20122;-89
2023/10/03 01:40:58;;;;;;;33.25;23.40;;;18.20;99.90;;;;;;5076954;28;20070;-90
2023/10/03 01:43:24;;;;;;;34.30;23.23;;;18.20;99.90;;;;;;5076765;28;20502;-90
2023/10/03 01:45:50;;;;;;;32.97;23.40;;;18.20;99.90;;;;;;5093681;28;20085;-89
2023/10/03 01:48:18;;;;;;;35.17;23.80;;;18.10;99.90;;;;;;5076839;28;20032;-90
2023/10/03 01:50:44;;;;;;;31.60;22.73;;;18.20;99.90;;;;;;5076869;28;20032;-89
2023/10/03 01:53:11;;;;;;;31.88;22.17;;;18.10;99.90;;;;;;5076635;28;20035;-90
2023/10/03 01:55:38;;;;;;;27.70;12.80;;;18.10;99.90;;;;;;5093742;28;20118;-89
2023/10/03 01:58:05;;;;;;;33.22;22.80;;;18.10;99.90;;;;;;5077198;28;20035;-90
2023/10/03 02:00:31;;;;;;;32.03;22.25;;;18.10;99.90;;;;;;5094126;28;20506;-89
2023/10/03 02:03:11;;;;;;;33.38;22.83;;;18.10;99.90;;;;;;5098001;28;20039;-89
2023/10/03 02:05:38;;;;;;;30.38;13.50;;;18.10;99.90;;;;;;5077527;28;20036;-89
2023/10/03 02:08:07;;;;;;;34.88;23.30;;;18.00;99.90;;;;;;5076777;28;20032;-89
2023/10/03 02:10:36;;;;;;;30.85;22.23;;;18.10;99.90;;;;;;5092900;28;20043;-89
2023/10/03 02:13:14;;;;;;;27.27;14.43;;;18.10;99.90;;;;;;5093454;28;20042;-89
2023/10/03 02:15:48;;;;;;;31.88;21.92;;;18.10;99.90;;;;;;5093628;28;20406;-89
2023/10/03 02:18:18;;;;;;;34.72;22.10;;;18.20;99.90;;;;;;5076222;28;20040;-89
2023/10/03 02:21:04;;;;;;;33.33;21.98;;;18.20;99.90;;;;;;5093205;28;20046;-89
2023/10/03 02:23:32;;;;;;;33.42;21.50;;;18.20;99.90;;;;;;5093119;28;20052;-89
2023/10/03 02:26:12;;;;;;;33.00;21.83;;;18.30;99.90;;;;;;5076232;28;20491;-89
2023/10/03 02:28:39;;;;;;;32.92;21.70;;;18.30;99.90;;;;;;5093004;28;20039;-90
2023/10/03 02:31:07;;;;;;;31.83;20.92;;;18.30;99.90;;;;;;5092746;28;20449;-90
2023/10/03 02:33:36;;;;;;;30.23;21.00;;;18.40;99.90;;;;;;5084837;28;20440;-89
2023/10/03 02:36:04;;;;;;;33.60;20.80;;;18.40;99.90;;;;;;5076096;28;20050;-89
2023/10/03 02:38:30;;;;;;;36.08;21.73;;;18.40;99.90;;;;;;5075875;28;20039;-89
2023/10/03 02:41:00;;;;;;;33.80;21.10;;;18.40;99.90;;;;;;5092884;28;20039;-89
2023/10/03 02:43:30;;;;;;;30.90;21.90;;;18.40;99.90;;;;;;5076380;28;20043;-90
2023/10/03 02:45:56;;;;;;;31.70;21.58;;;18.40;99.90;;;;;;5093171;28;20032;-90
2023/10/03 02:48:22;;;;;;;31.77;13.50;;;18.40;99.90;;;;;;5078398;28;20441;-89
2023/10/03 02:50:50;;;;;;;31.50;20.85;;;18.50;99.90;;;;;;5079999;28;20077;-90
2023/10/03 02:53:20;;;;;;;30.92;20.23;;;18.50;99.90;;;;;;5079965;28;20036;-89
2023/10/03 02:55:51;;;;;;;30.75;21.17;;;18.40;99.90;;;;;;5114506;28;20066;-89
2023/10/03 02:58:17;;;;;;;31.42;20.70;;;18.50;99.90;;;;;;5096027;28;20043;-90
2023/10/03 03:00:53;;;;;;;31.10;20.58;;;18.50;99.90;;;;;;5096041;28;20081;-90
2023/10/03 03:03:19;;;;;;;32.55;20.67;;;18.50;99.90;;;;;;5096468;28;20042;-90
2023/10/03 03:05:46;;;;;;;28.02;14.20;;;18.50;99.90;;;;;;5096802;28;20032;-90
2023/10/03 03:10:55;;;;;;;32.63;21.13;;;18.50;99.90;;;;;;5095946;28;20048;-90
2023/10/03 03:13:28;;;;;;;30.02;13.45;;;18.60;99.90;;;;;;5079328;28;20082;-90
2023/10/03 03:16:02;;;;;;;30.92;19.92;;;18.50;99.90;;;;;;5079745;28;20051;-89
2023/10/03 03:18:42;;;;;;;35.10;20.73;;;18.50;99.90;;;;;;5096125;28;20040;-89
2023/10/03 03:21:10;;;;;;;30.65;20.02;;;18.60;99.90;;;;;;5096091;28;20031;-89
2023/10/03 03:23:38;;;;;;;32.67;21.10;;;18.60;99.90;;;;;;5096142;28;20476;-90
2023/10/03 03:26:35;;;;;;;21.75;9.32;;;18.70;99.90;;;;;;5096247;28;20047;-89
2023/10/03 03:28:50;;;;;;;32.33;20.27;;;18.70;99.90;;;;;;5095136;28;20043;-90
2023/10/03 03:31:25;;;;;;;29.58;20.27;;;18.70;99.90;;;;;;5078741;28;20046;-90
2023/10/03 03:33:52;;;;;;;31.42;20.20;;;18.80;99.90;;;;;;5079008;28;20466;-89
2023/10/03 03:36:20;;;;;;;30.42;19.33;;;18.80;99.90;;;;;;5096046;28;20118;-90
2023/10/03 03:38:51;;;;;;;30.85;19.52;;;18.80;99.90;;;;;;5095564;28;20498;-90
2023/10/03 03:41:18;;;;;;;31.70;19.55;;;18.80;99.90;;;;;;5096065;28;20040;-90
2023/10/03 03:43:44;;;;;;;30.38;14.30;;;18.80;99.90;;;;;;5095518;28;20510;-89
2023/10/03 03:46:12;;;;;;;30.92;20.13;;;18.80;99.90;;;;;;5078848;28;20123;-91
2023/10/03 03:48:38;;;;;;;32.42;20.77;;;18.80;99.90;;;;;;5095335;28;20035;-89
2023/10/03 03:51:06;;;;;;;32.88;20.88;;;18.80;99.90;;;;;;5095394;28;20079;-89
2023/10/03 03:53:33;;;;;;;32.83;20.95;;;18.80;99.90;;;;;;5100658;28;20044;-89
2023/10/03 03:56:00;;;;;;;30.48;20.75;;;18.80;99.90;;;;;;5074374;28;20040;-89
2023/10/03 03:58:26;;;;;;;28.70;19.23;;;18.80;99.90;;;;;;5091606;28;20073;-89
2023/10/03 04:00:52;;;;;;;27.77;12.93;;;18.80;99.90;;;;;;5080173;28;20419;-90
2023/10/03 04:03:18;;;;;;;29.67;19.35;;;18.80;99.90;;;;;;5102992;28;20031;-89
2023/10/03 04:05:46;;;;;;;30.00;19.05;;;18.80;99.90;;;;;;5103215;28;20473;-89
2023/10/03 04:08:12;;;;;;;32.13;20.15;;;18.80;99.90;;;;;;5078992;28;20039;-90
2023/10/03 04:10:38;;;;;;;31.38;20.30;;;18.80;99.90;;;;;;5103947;28;20028;-90
2023/10/03 04:13:08;;;;;;;29.23;19.63;;;18.80;99.90;;;;;;5104331;28;20785;-90
2023/10/03 04:15:33;;;;;;;32.55;19.88;;;18.80;99.90;;;;;;5081466;28;20042;-89
2023/10/03 04:17:59;;;;;;;31.40;20.88;;;18.80;99.90;;;;;;5078134;28;20406;-90
2023/10/03 04:22:51;;;;;;;31.20;19.63;;;18.80;99.90;;;;;;5094877;28;20052;-90
2023/10/03 04:25:21;;;;;;;30.42;19.13;;;18.70;99.90;;;;;;5097826;28;20444;-89
2023/10/03 04:27:54;;;;;;;31.05;19.55;;;18.80;99.90;;;;;;5082117;28;20055;-89
2023/10/03 04:30:21;;;;;;;30.77;19.23;;;18.70;99.90;;;;;;5099847;28;20663;-89
2023/10/03 04:32:47;;;;;;;30.33;19.67;;;18.70;99.90;;;;;;5094577;28;20032;-89
2023/10/03 04:35:18;;;;;;;25.25;11.77;;;18.70;99.90;;;;;;5103664;28;20052;-90
2023/10/03 04:37:44;;;;;;;28.92;18.30;;;18.70;99.90;;;;;;5100197;28;20384;-89
2023/10/03 04:40:16;;;;;;;26.83;18.85;;;18.70;99.90;;;;;;5096319;28;20036;-89
2023/10/03 04:42:45;;;;;;;28.67;17.98;;;18.80;99.90;;;;;;5078037;28;20062;-89
2023/10/03 04:45:14;;;;;;;30.48;18.92;;;18.80;99.90;;;;;;5094666;28;20043;-89
2023/10/03 04:47:41;;;;;;;29.60;18.17;;;18.80;99.90;;;;;;5077878;28;20131;-89
2023/10/03 04:50:11;;;;;;;24.00;8.93;;;18.80;99.90;;;;;;5094215;28;20042;-89
2023/10/03 04:52:38;;;;;;;30.42;18.15;;;18.80;99.90;;;;;;5094875;28;20035;-89
2023/10/03 04:55:04;;;;;;;28.50;18.10;;;18.80;99.90;;;;;;5077797;28;20136;-89
2023/10/03 04:57:29;;;;;;;25.05;13.00;;;18.90;99.90;;;;;;5077604;28;20054;-89
2023/10/03 04:59:56;;;;;;;28.75;18.25;;;18.90;99.90;;;;;;5077307;28;20040;-89
2023/10/03 05:02:23;;;;;;;29.60;17.88;;;18.90;99.90;;;;;;5094509;28;20044;-89
2023/10/03 05:04:48;;;;;;;31.23;18.17;;;19.00;99.90;;;;;;5077082;28;20035;-89
2023/10/03 05:07:15;;;;;;;28.08;17.75;;;18.90;99.90;;;;;;5077352;28;20036;-89
2023/10/03 05:09:40;;;;;;;26.73;17.17;;;19.00;99.90;;;;;;5076509;28;20039;-90
2023/10/03 05:12:06;;;;;;;24.95;16.63;;;19.00;99.90;;;;;;5077005;28;20031;-89
2023/10/03 05:14:34;;;;;;;26.10;17.08;;;19.00;99.90;;;;;;5077339;28;20043;-89
2023/10/03 05:17:01;;;;;;;24.85;16.45;;;19.00;99.90;;;;;;5077416;28;20379;-89
2023/10/03 05:19:28;;;;;;;25.48;16.85;;;19.00;99.90;;;;;;5077089;28;20039;-87
2023/10/03 05:21:53;;;;;;;25.67;16.80;;;19.00;99.90;;;;;;5094101;28;20403;-89
2023/10/03 05:24:19;;;;;;;28.02;17.50;;;19.10;99.90;;;;;;5077134;28;20492;-89
2023/10/03 05:26:45;;;;;;;28.25;16.80;;;19.10;99.90;;;;;;5077377;28;20031;-89
2023/10/03 05:29:10;;;;;;;26.75;16.50;;;19.10;99.90;;;;;;5093999;28;20509;-89
2023/10/03 05:31:40;;;;;;;24.45;16.20;;;19.20;99.90;;;;;;5077252;28;20482;-90
2023/10/03 05:34:07;;;;;;;25.05;15.27;;;19.20;99.90;;;;;;5077114;28;20031;-90
2023/10/03 05:36:33;;;;;;;26.05;15.13;;;19.20;99.90;;;;;;5093739;28;20040;-90
2023/10/03 05:38:58;;;;;;;23.08;13.85;;;19.30;99.90;;;;;;5092092;28;20040;-88
2023/10/03 05:41:24;;;;;;;25.25;14.48;;;19.30;99.90;;;;;;5099965;28;20413;-89
2023/10/03 05:43:50;;;;;;;21.98;13.90;;;19.30;99.90;;;;;;5090983;28;20602;-89
2023/10/03 05:46:16;;;;;;;22.60;13.40;;;19.30;99.90;;;;;;5077455;28;20159;-90
2023/10/03 05:48:45;;;;;;;22.75;13.27;;;19.30;99.90;;;;;;5076235;28;20519;-90
2023/10/03 05:51:12;;;;;;;24.52;12.80;;;19.40;99.90;;;;;;5082865;28;20498;-89
2023/10/03 05:53:40;;;;;;;21.85;13.27;;;19.40;99.90;;;;;;5091348;28;20071;-90
2023/10/03 05:56:06;;;;;;;22.48;11.82;;;19.40;99.90;;;;;;5099156;28;20051;-90
2023/10/03 05:58:32;;;;;;;23.27;12.63;;;19.40;99.90;;;;;;5093363;28;20039;-89
2023/10/03 06:00:59;;;;;;;26.25;13.20;;;19.40;99.90;;;;;;5076769;28;20540;-90
2023/10/03 06:03:25;;;;;;;18.90;8.75;;;19.40;99.90;;;;;;5076933;28;20105;-90
2023/10/03 06:05:51;;;;;;;21.73;12.70;;;19.40;99.90;;;;;;5101182;28;20032;-90
2023/10/03 06:08:17;;;;;;;23.13;12.57;;;19.40;99.90;;;;;;5093548;28;20093;-90
2023/10/03 06:10:43;;;;;;;21.20;11.80;;;19.40;99.90;;;;;;5093476;28;20031;-89
2023/10/03 06:13:11;;;;;;;20.27;11.50;;;19.40;99.90;;;;;;5095546;28;20402;-90
2023/10/03 06:15:43;;;;;;;19.42;10.88;;;19.40;99.90;;;;;;5085106;28;20050;-90
2023/10/03 06:18:09;;;;;;;10.38;4.88;;;19.40;99.90;;;;;;5078491;28;20491;-90
2023/10/03 06:20:35;;;;;;;19.73;9.82;;;19.40;99.90;;;;;;5079627;28;20092;-89
2023/10/03 06:23:02;;;;;;;20.30;8.57;;;19.40;99.90;;;;;;5078296;28;20549;-90
2023/10/03 06:25:29;;;;;;;18.33;7.90;;;19.40;99.90;;;;;;5080235;28;20123;-89
2023/10/03 06:27:54;;;;;;;19.77;7.25;;;19.40;99.90;;;;;;5080155;28;20039;-90
2023/10/03 06:30:20;;;;;;;19.52;7.95;;;19.40;99.90;;;;;;5100763;28;20046;-89
2023/10/03 06:32:45;;;;;;;18.80;8.65;;;19.40;99.90;;;;;;5088905;28;20066;-89
2023/10/03 06:35:12;;;;;;;18.00;8.13;;;19.40;99.90;;;;;;5080332;28;20513;-90
2023/10/03 06:37:38;;;;;;;16.45;4.28;;;19.30;99.90;;;;;;5097293;28;20124;-90
2023/10/03 06:40:06;;;;;;;17.63;7.85;;;19.30;99.90;;;;;;5080312;28;20520;-90
2023/10/03 06:42:35;;;;;;;19.25;8.20;;;19.30;99.90;;;;;;5078088;28;20540;-90
2023/10/03 06:45:04;;;;;;;15.77;7.03;;;19.30;99.90;;;;;;5094228;28;20039;-89
2023/10/03 06:47:33;;;;;;;20.17;7.03;;;19.30;99.90;;;;;;5094010;28;20039;-89
2023/10/03 06:49:59;;;;;;;18.00;6.60;;;19.20;99.90;;;;;;5093778;28;20035;-89
2023/10/03 06:52:26;;;;;;;19.02;6.93;;;19.20;99.90;;;;;;5094206;28;20036;-89
2023/10/03 06:54:51;;;;;;;17.80;6.30;;;19.20;99.90;;;;;;5094016;28;20047;-89
2023/10/03 06:57:17;;;;;;;16.70;5.85;;;19.30;99.90;;;;;;5076928;28;20460;-89
2023/10/03 06:59:43;;;;;;;11.43;2.75;;;19.20;99.90;;;;;;5076719;28;20038;-89
2023/10/03 07:02:08;;;;;;;17.00;6.70;;;19.10;99.90;;;;;;5093902;28;20455;-89
2023/10/03 07:04:34;;;;;;;14.20;6.38;;;19.10;99.90;;;;;;5077314;28;20129;-89
2023/10/03 07:07:00;;;;;;;15.60;6.40;;;19.10;99.90;;;;;;5094859;28;20044;-89
2023/10/03 07:09:25;;;;;;;16.15;6.47;;;19.10;99.90;;;;;;5094998;28;20659;-89
2023/10/03 07:11:52;;;;;;;13.63;6.10;;;19.20;99.90;;;;;;5093894;28;20142;-89
2023/10/03 07:14:18;;;;;;;14.77;5.82;;;19.10;99.90;;;;;;5093816;28;20039;-89
2023/10/03 07:16:48;;;;;;;13.90;5.95;;;19.10;99.90;;;;;;5093346;28;20445;-89
2023/10/03 07:19:14;;;;;;;15.98;6.13;;;19.20;99.90;;;;;;5078464;28;20414;-89
2023/10/03 07:21:41;;;;;;;14.52;5.45;;;19.20;99.90;;;;;;5079190;28;20040;-89
2023/10/03 07:24:07;;;;;;;9.55;2.75;;;19.20;99.90;;;;;;5079003;28;20050;-89
2023/10/03 07:26:32;;;;;;;12.57;5.15;;;19.20;99.90;;;;;;5079015;28;20040;-89
2023/10/03 07:29:02;;;;;;;11.40;3.95;;;19.20;99.90;;;;;;5078994;28;20032;-90
2023/10/03 07:31:29;;;;;;;13.93;5.97;;;19.10;99.90;;;;;;5100882;28;20084;-90
2023/10/03 07:33:56;;;;;;;12.20;6.30;;;19.20;99.90;;;;;;5095832;28;20047;-90
2023/10/03 07:36:22;;;;;;;12.68;5.43;;;19.20;99.90;;;;;;5096097;28;20039;-89
2023/10/03 07:38:48;;;;;;;11.07;3.15;;;19.20;99.90;;;;;;5095406;28;20044;-90
2023/10/03 07:41:15;;;;;;;13.60;5.70;;;19.20;99.90;;;;;;5104510;28;20397;-90
2023/10/03 07:43:41;;;;;;;12.90;5.93;;;19.20;99.90;;;;;;5085282;28;20040;-90
2023/10/03 07:46:07;;;;;;;15.35;6.43;;;19.10;99.90;;;;;;5095963;28;20032;-89
2023/10/03 07:48:33;;;;;;;13.60;6.18;;;19.10;99.90;;;;;;5095415;28;20036;-89
2023/10/03 07:50:58;;;;;;;22.20;6.70;;;19.10;99.90;;;;;;5079093;28;20070;-89
2023/10/03 07:53:29;;;;;;;13.35;6.78;;;19.10;99.90;;;;;;5083443;28;20080;-90
2023/10/03 07:55:56;;;;;;;14.38;7.07;;;19.00;99.90;;;;;;5079085;28;20035;-90
2023/10/03 07:58:22;;;;;;;15.73;6.72;;;19.10;99.90;;;;;;5082219;28;20032;-90
2023/10/03 08:00:49;;;;;;;12.77;6.07;;;19.00;99.90;;;;;;5079973;28;20085;-90
2023/10/03 08:03:19;;;;;;;14.82;5.70;;;19.00;99.90;;;;;;5102091;27;20047;-90
2023/10/03 08:05:44;;;;;;;14.20;5.75;;;19.00;99.90;;;;;;5104018;27;20047;-90
2023/10/03 08:08:10;;;;;;;15.23;6.25;;;19.00;99.90;;;;;;5105532;27;20034;-89
2023/10/03 08:10:36;;;;;;;12.55;3.92;;;19.00;99.90;;;;;;5103932;27;20482;-89
2023/10/03 08:13:02;;;;;;;12.65;5.35;;;18.90;99.90;;;;;;5088419;27;20028;-89
2023/10/03 08:15:34;;;;;;;11.85;4.97;;;18.90;99.90;;;;;;5086946;28;20417;-90
2023/10/03 08:17:59;;;;;;;15.18;6.00;;;18.90;99.90;;;;;;5103183;27;20460;-90
2023/10/03 08:20:28;;;;;;;11.88;4.97;;;18.90;99.90;;;;;;5086061;28;20043;-90
2023/10/03 08:22:53;;;;;;;9.80;3.03;;;18.90;99.90;;;;;;5086877;27;20043;-89
2023/10/03 08:25:21;;;;;;;12.95;5.30;;;18.90;99.90;;;;;;5101327;28;20039;-89
2023/10/03 08:27:50;;;;;;;11.68;5.32;;;18.80;99.90;;;;;;5077764;28;20036;-90
2023/10/03 08:30:28;;;;;;;12.95;5.38;;;18.80;99.90;;;;;;5103153;28;20050;-89
2023/10/03 08:32:56;;;;;;;11.50;5.10;;;18.70;99.90;;;;;;5077184;28;20422;-89
2023/10/03 08:35:34;;;;;;;14.13;5.63;;;18.60;99.90;;;;;;5083695;28;20039;-89
2023/10/03 08:38:04;;;;;;;14.50;5.00;;;18.50;99.90;;;;;;5075251;28;20074;-89
2023/10/03 08:40:37;;;;;;;12.88;5.60;;;18.40;99.90;;;;;;5075128;28;20111;-89
2023/10/03 08:43:09;;;;;;;12.43;5.75;;;18.40;99.90;;;;;;5100567;28;20055;-89
2023/10/03 08:45:42;;;;;;;9.85;3.22;;;18.30;99.90;;;;;;5091250;28;20059;-89
2023/10/03 08:48:10;;;;;;;12.07;2.90;;;18.20;99.90;;;;;;5075113;28;20111;-89
2023/10/03 08:50:46;;;;;;;11.68;4.80;;;18.10;99.90;;;;;;5075085;28;20494;-88
2023/10/03 08:53:13;;;;;;;12.80;4.97;;;18.20;99.90;;;;;;5076409;28;20047;-89
2023/10/03 08:55:44;;;;;;;12.65;4.35;;;18.20;99.90;;;;;;5102913;28;20039;-89
2023/10/03 08:58:13;;;;;;;12.55;4.68;;;18.30;99.90;;;;;;5084189;28;20078;-89
2023/10/03 09:00:51;;;;;;;12.02;4.40;;;18.30;99.90;;;;;;5102919;28;20047;-90
2023/10/03 09:03:18;;;;;;;11.80;3.67;;;18.40;99.90;;;;;;5077705;28;20047;-90
2023/10/03 09:05:44;;;;;;;10.77;2.90;;;18.40;99.90;;;;;;5077258;28;20456;-90
2023/10/03 09:08:12;;;;;;;11.10;3.20;;;18.40;99.90;;;;;;5094069;28;20126;-90
2023/10/03 09:10:55;;;;;;;8.65;2.67;;;18.30;99.90;;;;;;5104359;27;20402;-90
2023/10/03 09:13:28;;;;;;;8.43;2.47;;;18.30;99.90;;;;;;5086325;28;20628;-90
2023/10/03 09:16:08;;;;;;;9.32;2.10;;;18.30;99.90;;;;;;5077532;28;20035;-89
2023/10/03 09:18:40;;;;;;;8.82;2.80;;;18.30;99.90;;;;;;5094075;28;20035;-89
2023/10/03 09:21:23;;;;;;;10.32;2.22;;;18.30;99.90;;;;;;5081387;28;20046;-89
2023/10/03 09:24:15;;;;;;;;;;;18.20;99.90;;;;;;5121416;27;20058;-89
2023/10/03 09:26:46;;;;;;;7.63;1.88;;;18.20;99.90;;;;;;5090663;27;20400;-89
2023/10/03 09:29:18;;;;;;;9.20;2.47;;;18.20;99.90;;;;;;5108072;27;20038;-89
2023/10/03 09:31:48;;;;;;;8.05;2.28;;;18.20;99.90;;;;;;5082127;28;20027;-90
2023/10/03 09:34:17;;;;;;;10.02;2.15;;;18.20;99.90;;;;;;5106113;28;20039;-90
2023/10/03 09:36:43;;;;;;;12.48;2.58;;;18.20;99.90;;;;;;5118043;28;20057;-88
2023/10/03 09:39:21;;;;;;;9.38;2.10;;;18.20;99.90;;;;;;5104960;28;20035;-89
2023/10/03 09:41:56;;;;;;;10.45;2.22;;;18.20;99.90;;;;;;5105731;28;20408;-89
2023/10/03 09:44:29;;;;;;;3.72;1.38;;;18.20;99.90;;;;;;5106307;28;20062;-89
2023/10/03 09:47:06;;;;;;;7.80;1.75;;;18.20;99.90;;;;;;5100276;28;20542;-88
2023/10/03 09:49:38;;;;;;;9.25;2.00;;;18.30;99.90;;;;;;5086599;28;20023;-89
2023/10/03 09:52:17;;;;;;;6.23;1.23;;;18.30;99.90;;;;;;5084473;28;20092;-88
2023/10/03 09:54:44;;;;;;;5.85;1.20;;;18.20;99.90;;;;;;5101927;28;20087;-89
2023/10/03 09:57:16;;;;;;;6.80;1.45;;;18.10;99.90;;;;;;5107672;27;20074;-89
2023/10/03 09:59:46;;;;;;;5.60;1.13;;;18.00;99.90;;;;;;5092716;27;20037;-89
2023/10/03 10:02:14;;;;;;;9.25;1.58;;;18.00;99.90;;;;;;5108899;27;20075;-89
2023/10/03 10:04:41;;;;;;;5.85;1.10;;;18.00;99.90;;;;;;5107881;27;20562;-89
2023/10/03 10:07:16;;;;;;;8.05;1.25;;;18.00;99.90;;;;;;5106570;27;20043;-90
2023/10/03 10:10:07;;;;;;;4.65;0.52;;;18.00;99.90;;;;;;5106176;27;20038;-89
2023/10/03 10:12:37;;;;;;;8.07;1.50;;;17.90;99.90;;;;;;5083831;27;20031;-89
2023/10/03 10:17:49;;;;;;;6.60;1.30;;;17.80;99.90;;;;;;5108456;27;20054;-90
2023/10/03 10:23:06;;;;;;;7.45;1.27;;;17.80;99.90;;;;;;5109516;27;20047;-89
2023/10/03 10:25:42;;;;;;;7.03;1.20;;;17.80;99.90;;;;;;5108619;27;20043;-90
2023/10/03 10:28:26;;;;;;;8.52;1.30;;;17.80;99.90;;;;;;5088483;27;20043;-90
2023/10/03 10:31:10;;;;;;;6.72;1.17;;;17.80;99.90;;;;;;5087809;27;20035;-90
2023/10/03 10:33:36;;;;;;;4.70;0.70;;;17.80;99.90;;;;;;5107310;27;20031;-90
2023/10/03 10:36:08;;;;;;;6.00;1.00;;;17.70;99.90;;;;;;5108122;27;20035;-90
2023/10/03 10:38:34;;;;;;;5.45;1.10;;;17.70;99.90;;;;;;5090218;27;20085;-90
2023/10/03 10:41:21;;;;;;;6.30;0.90;;;17.80;99.90;;;;;;5089452;28;20031;-90
2023/10/03 10:44:13;;;;;;;1.85;0.63;;;17.70;99.90;;;;;;5107553;27;20118;-89
2023/10/03 10:46:46;;;;;;;6.53;1.10;;;17.70;99.90;;;;;;5107983;27;20451;-90
2023/10/03 10:49:30;;;;;;;5.45;1.25;;;17.60;99.90;;;;;;5086353;28;20039;-89
2023/10/03 10:51:57;;;;;;;6.60;1.17;;;17.70;99.90;;;;;;5088301;28;20035;-90
2023/10/03 10:54:27;;;;;;;6.15;0.98;;;17.70;99.90;;;;;;5105556;28;20050;-90
2023/10/03 10:57:03;;;;;;;4.03;0.65;;;17.80;99.90;;;;;;5080240;28;20040;-90
2023/10/03 10:59:31;;;;;;;8.07;1.50;;;17.70;99.90;;;;;;5088142;28;20127;-90
2023/10/03 11:02:00;;;;;;;5.32;0.73;;;17.70;99.90;;;;;;5105119;28;20050;-90
2023/10/03 11:04:29;;;;;;;8.63;1.23;;;17.60;99.90;;;;;;5097107;28;20043;-90
2023/10/03 11:06:54;;;;;;;4.50;0.90;;;17.70;99.90;;;;;;5080170;28;20042;-90
2023/10/03 11:09:22;;;;;;;4.30;0.90;;;17.80;99.90;;;;;;5086969;28;20061;-90
2023/10/03 11:11:51;;;;;;;4.40;1.33;;;17.80;99.90;;;;;;5087983;28;20042;-91
2023/10/03 11:14:29;;;;;;;2.65;0.60;;;17.80;99.90;;;;;;5082358;27;20043;-90
2023/10/03 11:16:56;;;;;;;6.30;1.45;;;17.80;99.90;;;;;;5088963;27;20566;-90
2023/10/03 11:19:24;;;;;;;6.65;1.30;;;17.80;99.90;;;;;;5105072;27;20041;-90
2023/10/03 11:21:51;;;;;;;6.03;1.63;;;17.90;99.90;;;;;;5088327;27;20494;-90
2023/10/03 11:24:19;;;;;;;9.75;1.65;;;18.00;99.90;;;;;;5088807;27;20043;-90
2023/10/03 11:26:49;;;;;;;4.68;1.27;;;18.00;99.90;;;;;;5089083;27;20410;-90
2023/10/03 11:29:16;;;;;;;5.30;1.00;;;18.10;99.90;;;;;;5089267;27;20074;-90
2023/10/03 11:31:45;;;;;;;8.20;1.60;;;18.10;99.90;;;;;;5101929;27;20444;-90
2023/10/03 11:34:39;;;;;;;6.03;1.23;;;18.30;99.90;;;;;;5106260;27;20077;-90
2023/10/03 11:37:05;;;;;;;7.97;1.60;;;18.40;99.90;;;;;;5090041;27;20042;-90
2023/10/03 11:39:38;;;;;;;6.40;1.50;;;18.30;99.90;;;;;;5105251;27;20123;-90
2023/10/03 11:42:24;;;;;;;6.85;1.92;;;18.20;99.90;;;;;;5105690;27;20047;-90
2023/10/03 11:45:03;;;;;;;9.30;1.65;;;18.20;99.90;;;;;;5086037;27;20031;-90
2023/10/03 11:47:28;;;;;;;6.93;1.58;;;18.10;99.90;;;;;;5082533;27;20060;-90
2023/10/03 11:49:56;;;;;;;7.22;1.90;;;18.00;99.90;;;;;;5085964;27;20511;-91
2023/10/03 11:52:23;;;;;;;8.02;1.70;;;17.90;99.90;;;;;;5083931;28;20027;-90
2023/10/03 11:54:49;;;;;;;4.85;1.00;;;17.80;99.90;;;;;;5083778;27;20027;-90
2023/10/03 11:57:15;;;;;;;7.72;1.60;;;17.80;99.90;;;;;;5103056;27;20050;-88
2023/10/03 11:59:40;;;;;;;7.60;2.08;;;17.70;99.90;;;;;;5088287;27;20035;-90
2023/10/03 12:02:06;;;;;;;4.50;0.88;;;17.60;99.90;;;;;;5089801;27;20027;-90
2023/10/03 12:04:38;;;;;;;9.10;1.33;;;17.40;99.90;;;;;;5104924;27;20066;-90
2023/10/03 12:07:04;;;;;;;7.15;1.65;;;17.30;99.90;;;;;;5099667;28;20110;-90
2023/10/03 12:09:31;;;;;;;7.25;1.50;;;17.30;99.90;;;;;;5099246;28;20040;-90
2023/10/03 12:11:57;;;;;;;6.22;1.38;;;17.20;99.90;;;;;;5086839;28;20032;-90
2023/10/03 12:14:23;;;;;;;7.10;1.40;;;17.10;99.90;;;;;;5083754;28;20050;-90
2023/10/03 12:16:51;;;;;;;7.45;1.50;;;16.90;99.90;;;;;;5102679;28;20036;-90
2023/10/03 12:19:21;;;;;;;7.80;1.90;;;16.90;99.90;;;;;;5078280;28;20486;-90
2023/10/03 12:21:47;;;;;;;5.75;1.70;;;16.90;99.90;;;;;;5102475;28;20494;-90
2023/10/03 12:24:12;;;;;;;5.43;1.00;;;16.90;99.90;;;;;;5078692;28;20039;-90
2023/10/03 12:26:38;;;;;;;8.25;2.00;;;16.80;99.90;;;;;;5078248;28;20506;-90
2023/10/03 12:29:04;;;;;;;3.65;1.02;;;16.80;99.90;;;;;;5095308;28;20119;-90
2023/10/03 12:31:32;;;;;;;7.45;1.95;;;16.80;99.90;;;;;;5078182;28;20092;-90
2023/10/03 12:34:01;;;;;;;8.15;2.28;;;16.70;99.90;;;;;;5078328;28;20046;-90
2023/10/03 12:36:32;;;;;;;8.45;2.17;;;16.80;99.90;;;;;;5103576;28;20086;-90
2023/10/03 12:38:59;;;;;;;7.32;2.33;;;16.80;99.90;;;;;;5069672;28;20043;-90
2023/10/03 12:41:31;;;;;;;4.75;1.23;;;16.70;99.90;;;;;;5077994;28;20154;-90
2023/10/03 12:43:57;;;;;;;9.35;2.28;;;16.60;99.90;;;;;;5086242;28;20127;-90
2023/10/03 12:46:23;;;;;;;5.63;1.45;;;16.60;99.90;;;;;;5077598;28;20472;-90
2023/10/03 12:48:49;;;;;;;10.00;2.63;;;16.50;99.90;;;;;;5077536;28;20040;-90
2023/10/03 12:51:14;;;;;;;10.93;2.92;;;16.60;99.90;;;;;;5077904;28;20036;-90
2023/10/03 12:53:40;;;;;;;9.50;2.70;;;16.60;99.90;;;;;;5077765;28;20035;-90
2023/10/03 12:56:08;;;;;;;10.55;2.95;;;16.60;99.90;;;;;;5078104;28;20046;-90